createdAt,value
2022-11-21T00:01:23.308Z,28.02
2022-11-21T00:03:50.661Z,34.22
2022-11-21T00:06:19.300Z,27.02
2022-11-21T00:08:47.427Z,30.70
2022-11-21T00:11:15.103Z,30.02
2022-11-21T00:13:42.911Z,28.08
2022-11-21T00:16:14.956Z,31.45
2022-11-21T00:18:42.323Z,24.20
2022-11-21T00:21:15.749Z,27.73
2022-11-21T00:23:48.047Z,24.90
2022-11-21T00:26:17.335Z,30.33
2022-11-21T00:28:45.177Z,24.27
2022-11-21T00:31:23.575Z,27.55
2022-11-21T00:33:50.887Z,27.65
2022-11-21T00:36:18.110Z,28.35
2022-11-21T00:38:45.285Z,27.40
2022-11-21T00:41:12.544Z,25.20
2022-11-21T00:43:39.736Z,30.98
2022-11-21T00:46:06.836Z,29.90
2022-11-21T00:48:34.067Z,28.13
2022-11-21T00:51:01.450Z,31.65
2022-11-21T00:53:29.648Z,39.83
2022-11-21T00:55:57.555Z,43.63
2022-11-21T00:58:24.823Z,35.75
2022-11-21T01:00:52.401Z,33.45
2022-11-21T01:03:19.842Z,36.95
2022-11-21T01:05:47.036Z,35.67
2022-11-21T01:08:14.169Z,39.90
2022-11-21T01:10:41.453Z,44.25
2022-11-21T01:13:08.596Z,45.85
2022-11-21T01:15:35.732Z,44.38
2022-11-21T01:18:03.052Z,41.00
2022-11-21T01:20:30.150Z,42.75
2022-11-21T01:22:57.285Z,37.17
2022-11-21T01:25:24.522Z,37.40
2022-11-21T01:27:51.689Z,38.13
2022-11-21T01:30:18.896Z,39.75
2022-11-21T01:32:50.003Z,68.70
2022-11-21T01:35:18.364Z,50.97
2022-11-21T01:37:50.115Z,45.63
2022-11-21T01:40:17.548Z,48.17
2022-11-21T01:43:12.212Z,45.03
2022-11-21T01:46:11.078Z,39.67
2022-11-21T01:49:08.287Z,39.45
2022-11-21T01:52:04.809Z,35.20
2022-11-21T01:57:52.618Z,33.40
2022-11-21T02:00:27.087Z,40.70
2022-11-21T02:03:00.738Z,38.97
2022-11-21T02:05:35.572Z,35.65
2022-11-21T02:08:19.993Z,37.63
2022-11-21T02:11:18.745Z,39.50
2022-11-21T02:13:45.951Z,42.38
2022-11-21T02:16:13.296Z,45.30
2022-11-21T02:18:40.574Z,37.40
2022-11-21T02:21:48.956Z,40.03
2022-11-21T02:25:13.123Z,35.60
2022-11-21T02:27:40.568Z,44.58
2022-11-21T02:30:10.990Z,36.33
2022-11-21T02:32:47.082Z,41.13
2022-11-21T02:35:18.586Z,34.58
2022-11-21T02:37:54.730Z,36.85
2022-11-21T02:40:31.931Z,33.58
2022-11-21T02:43:16.503Z,38.78
2022-11-21T02:45:46.473Z,34.92
2022-11-21T02:48:14.896Z,35.05
2022-11-21T02:50:46.154Z,37.75
2022-11-21T02:53:18.649Z,35.55
2022-11-21T02:55:46.714Z,36.65
2022-11-21T02:58:14.383Z,39.13
2022-11-21T03:00:43.455Z,34.17
2022-11-21T03:03:11.210Z,34.97
2022-11-21T03:05:40.051Z,39.00
2022-11-21T03:08:07.916Z,37.88
2022-11-21T03:10:35.080Z,28.88
2022-11-21T03:13:02.361Z,30.95
2022-11-21T03:15:33.433Z,32.20
2022-11-21T03:18:02.929Z,31.25
2022-11-21T03:20:34.827Z,30.77
2022-11-21T03:23:02.822Z,33.60
2022-11-21T03:25:29.931Z,32.10
2022-11-21T03:27:57.101Z,32.72
2022-11-21T03:30:27.113Z,33.30
2022-11-21T03:32:58.488Z,29.77
2022-11-21T03:35:25.802Z,30.10
2022-11-21T03:37:53.048Z,31.63
2022-11-21T03:40:20.316Z,31.98
2022-11-21T03:42:47.504Z,29.50
2022-11-21T03:45:14.829Z,28.80
2022-11-21T03:47:42.073Z,33.33
2022-11-21T03:50:10.647Z,31.38
2022-11-21T03:52:37.850Z,28.65
2022-11-21T03:55:05.767Z,32.95
2022-11-21T03:57:33.022Z,29.92
2022-11-21T04:00:00.205Z,30.83
2022-11-21T04:02:27.340Z,28.65
2022-11-21T04:04:54.493Z,28.63
2022-11-21T04:07:21.740Z,33.00
2022-11-21T04:09:48.911Z,30.00
2022-11-21T04:12:16.056Z,29.23
2022-11-21T04:14:43.191Z,30.17
2022-11-21T04:17:10.369Z,32.67
2022-11-21T04:19:37.505Z,31.13
2022-11-21T04:22:04.748Z,30.95
2022-11-21T04:24:31.911Z,31.65
2022-11-21T04:26:59.025Z,34.72
2022-11-21T04:29:26.207Z,29.10
2022-11-21T04:31:53.320Z,34.97
2022-11-21T04:34:20.491Z,31.00
2022-11-21T04:36:47.676Z,38.40
2022-11-21T04:39:14.896Z,32.58
2022-11-21T04:41:42.193Z,33.70
2022-11-21T04:44:09.429Z,47.13
2022-11-21T04:46:36.560Z,41.72
2022-11-21T04:49:03.810Z,36.35
2022-11-21T04:51:30.967Z,34.08
2022-11-21T04:53:58.127Z,33.05
2022-11-21T04:56:25.296Z,34.05
2022-11-21T04:58:54.132Z,31.20
2022-11-21T05:01:21.398Z,33.45
2022-11-21T05:03:48.695Z,33.05
2022-11-21T05:06:15.948Z,33.47
2022-11-21T05:08:45.610Z,31.38
2022-11-21T05:11:33.493Z,34.30
2022-11-21T05:14:00.651Z,32.92
2022-11-21T05:16:27.936Z,33.65
2022-11-21T05:18:55.174Z,32.25
2022-11-21T05:21:22.390Z,35.30
2022-11-21T05:23:49.622Z,34.95
2022-11-21T05:26:16.754Z,32.15
2022-11-21T05:28:44.023Z,36.08
2022-11-21T05:31:11.188Z,33.53
2022-11-21T05:33:38.303Z,33.50
2022-11-21T05:36:05.675Z,35.20
2022-11-21T05:38:32.849Z,29.35
2022-11-21T05:40:59.964Z,25.45
2022-11-21T05:43:45.569Z,28.65
2022-11-21T05:46:16.349Z,27.45
2022-11-21T05:48:43.779Z,28.92
2022-11-21T05:51:11.615Z,27.48
2022-11-21T05:53:38.999Z,26.38
2022-11-21T05:56:11.052Z,28.90
2022-11-21T05:58:38.715Z,29.02
2022-11-21T06:01:08.464Z,28.50
2022-11-21T06:03:40.848Z,30.17
2022-11-21T06:06:13.019Z,28.45
2022-11-21T06:08:45.670Z,32.40
2022-11-21T06:11:17.129Z,30.15
2022-11-21T06:13:44.660Z,28.85
2022-11-21T06:16:19.549Z,36.15
2022-11-21T06:18:57.909Z,38.08
2022-11-21T06:21:28.696Z,33.60
2022-11-21T06:23:58.413Z,34.95
2022-11-21T06:26:28.154Z,29.02
2022-11-21T06:28:55.768Z,31.85
2022-11-21T06:31:26.439Z,30.92
2022-11-21T06:33:57.607Z,29.70
2022-11-21T06:36:27.113Z,29.00
2022-11-21T06:38:56.471Z,25.63
2022-11-21T06:41:30.115Z,27.63
2022-11-21T06:44:01.999Z,25.48
2022-11-21T06:46:29.572Z,28.35
2022-11-21T06:48:56.746Z,26.17
2022-11-21T06:51:26.015Z,30.08
2022-11-21T06:53:59.324Z,26.80
2022-11-21T06:56:31.893Z,27.65
2022-11-21T06:58:59.380Z,22.60
2022-11-21T07:01:26.770Z,31.45
2022-11-21T07:03:54.792Z,23.02
2022-11-21T07:06:23.041Z,27.77
2022-11-21T07:11:44.143Z,31.23
2022-11-21T07:14:14.454Z,29.50
2022-11-21T07:16:41.700Z,26.67
2022-11-21T07:19:09.011Z,33.85
2022-11-21T07:21:36.220Z,30.75
2022-11-21T07:24:03.945Z,29.17
2022-11-21T07:26:32.273Z,32.63
2022-11-21T07:28:59.410Z,29.55
2022-11-21T07:31:26.883Z,28.98
2022-11-21T07:33:54.084Z,31.88
2022-11-21T07:36:21.370Z,35.63
2022-11-21T07:38:48.595Z,31.85
2022-11-21T07:41:15.846Z,31.27
2022-11-21T07:43:43.144Z,28.67
2022-11-21T07:46:10.681Z,30.33
2022-11-21T07:48:37.845Z,42.88
2022-11-21T07:51:05.947Z,43.08
2022-11-21T07:53:33.301Z,34.05
2022-11-21T07:56:00.760Z,25.83
2022-11-21T07:58:28.190Z,32.65
2022-11-21T08:00:55.463Z,25.08
2022-11-21T08:03:23.432Z,26.58
2022-11-21T08:05:50.672Z,31.80
2022-11-21T08:08:18.012Z,29.88
2022-11-21T08:10:46.917Z,32.78
2022-11-21T08:13:15.077Z,29.27
2022-11-21T08:15:42.492Z,25.90
2022-11-21T08:18:23.234Z,26.70
2022-11-21T08:20:50.548Z,26.67
2022-11-21T08:23:17.683Z,29.67
2022-11-21T08:25:45.201Z,27.45
2022-11-21T08:28:12.751Z,26.92
2022-11-21T08:30:40.676Z,28.23
2022-11-21T08:33:08.429Z,29.27
2022-11-21T08:35:39.136Z,24.90
2022-11-21T08:38:06.760Z,25.55
2022-11-21T08:40:35.559Z,27.65
2022-11-21T08:43:07.379Z,25.67
2022-11-21T08:45:37.409Z,26.30
2022-11-21T08:48:11.279Z,27.02
2022-11-21T08:50:38.818Z,27.63
2022-11-21T08:53:06.040Z,28.40
2022-11-21T08:55:33.259Z,26.15
2022-11-21T08:58:00.693Z,25.17
2022-11-21T09:00:27.956Z,30.40
2022-11-21T09:02:55.182Z,31.75
2022-11-21T09:05:22.544Z,27.55
2022-11-21T09:07:57.611Z,24.05
2022-11-21T09:10:26.938Z,26.83
2022-11-21T09:12:54.595Z,24.15
2022-11-21T09:15:40.484Z,26.20
2022-11-21T09:18:08.293Z,23.52
2022-11-21T09:20:43.289Z,24.30
2022-11-21T09:23:15.861Z,27.08
2022-11-21T09:25:44.502Z,23.23
2022-11-21T09:28:13.871Z,21.40
2022-11-21T09:30:42.940Z,23.90
2022-11-21T09:33:17.098Z,20.35
2022-11-21T09:35:44.480Z,22.30
2022-11-21T09:38:11.640Z,24.17
2022-11-21T09:40:44.465Z,22.13
2022-11-21T09:43:42.680Z,21.80
2022-11-21T09:46:14.077Z,26.92
2022-11-21T09:49:00.774Z,20.77
2022-11-21T09:51:31.385Z,24.00
2022-11-21T09:54:09.890Z,24.13
2022-11-21T09:56:41.651Z,19.83
2022-11-21T09:59:38.825Z,20.55
2022-11-21T10:02:20.716Z,24.13
2022-11-21T10:04:49.495Z,20.08
2022-11-21T10:07:26.847Z,23.23
2022-11-21T10:10:38.439Z,25.25
2022-11-21T10:13:37.972Z,20.25
2022-11-21T10:16:41.813Z,19.85
2022-11-21T10:19:53.767Z,22.23
2022-11-21T10:23:10.077Z,23.83
2022-11-21T10:25:39.059Z,21.02
2022-11-21T10:28:28.012Z,22.08
2022-11-21T10:30:58.276Z,19.33
2022-11-21T10:33:33.998Z,27.42
2022-11-21T10:38:50.220Z,21.45
2022-11-21T10:41:24.820Z,20.33
2022-11-21T10:44:44.859Z,17.85
2022-11-21T10:47:30.923Z,20.58
2022-11-21T10:50:08.962Z,22.80
2022-11-21T10:53:23.310Z,24.98
2022-11-21T10:56:06.071Z,18.88
2022-11-21T10:58:56.119Z,19.95
2022-11-21T11:01:35.016Z,18.55
2022-11-21T11:04:27.128Z,17.42
2022-11-21T11:06:56.260Z,14.75
2022-11-21T11:09:35.834Z,17.05
2022-11-21T11:12:49.944Z,17.63
2022-11-21T11:15:23.102Z,18.30
2022-11-21T11:18:09.166Z,22.60
2022-11-21T11:20:45.185Z,18.55
2022-11-21T11:23:22.409Z,21.45
2022-11-21T11:25:57.741Z,17.88
2022-11-21T11:28:36.927Z,19.00
2022-11-21T11:31:04.241Z,18.75
2022-11-21T11:33:56.769Z,17.15
2022-11-21T11:36:31.478Z,15.27
2022-11-21T11:39:00.989Z,18.42
2022-11-21T11:42:49.328Z,16.38
2022-11-21T11:46:19.934Z,17.48
2022-11-21T11:49:17.130Z,17.58
2022-11-21T11:51:55.063Z,18.73
2022-11-21T11:54:48.970Z,15.82
2022-11-21T11:57:17.703Z,17.10
2022-11-21T11:59:57.772Z,13.35
2022-11-21T12:02:45.420Z,14.32
2022-11-21T12:05:25.385Z,13.20
2022-11-21T12:11:49.083Z,11.73
2022-11-21T12:15:06.116Z,10.50
2022-11-21T12:18:00.971Z,15.80
2022-11-21T12:20:42.866Z,12.15
2022-11-21T12:23:11.871Z,13.48
2022-11-21T12:26:03.316Z,13.10
2022-11-21T12:29:23.282Z,11.48
2022-11-21T12:32:32.851Z,10.18
2022-11-21T12:35:45.359Z,14.20
2022-11-21T12:39:02.605Z,12.23
2022-11-21T12:42:07.318Z,12.43
2022-11-21T12:45:21.013Z,13.82
2022-11-21T12:48:35.069Z,12.55
2022-11-21T12:52:27.202Z,11.32
2022-11-21T12:55:37.742Z,9.45
2022-11-21T12:58:39.909Z,14.65
2022-11-21T13:01:51.027Z,11.45
2022-11-21T13:04:28.106Z,11.35
2022-11-21T13:06:57.674Z,9.57
2022-11-21T13:09:27.794Z,13.32
2022-11-21T13:12:07.884Z,14.45
2022-11-21T13:14:48.751Z,11.23
2022-11-21T13:17:26.298Z,13.38
2022-11-21T13:20:14.419Z,17.85
2022-11-21T13:22:41.536Z,14.35
2022-11-21T13:25:30.167Z,9.25
2022-11-21T13:28:17.436Z,9.98
2022-11-21T13:30:56.649Z,12.07
2022-11-21T13:33:36.096Z,14.35
2022-11-21T13:36:10.047Z,9.75
2022-11-21T13:38:55.156Z,10.40
2022-11-21T13:41:52.823Z,10.98
2022-11-21T13:44:32.110Z,11.05
2022-11-21T13:47:25.956Z,13.55
2022-11-21T13:50:31.319Z,10.82
2022-11-21T13:53:33.309Z,11.35
2022-11-21T13:56:54.153Z,11.20
2022-11-21T14:00:20.069Z,12.20
2022-11-21T14:03:00.074Z,13.15
2022-11-21T14:05:46.125Z,11.73
2022-11-21T14:10:53.454Z,15.45
2022-11-21T14:13:35.775Z,15.73
2022-11-21T14:16:36.864Z,15.80
2022-11-21T14:19:05.468Z,15.25
2022-11-21T14:21:34.010Z,18.10
2022-11-21T14:24:17.625Z,17.83
2022-11-21T14:26:49.975Z,15.30
2022-11-21T14:29:40.441Z,18.10
2022-11-21T14:32:15.050Z,17.70
2022-11-21T14:34:42.183Z,18.55
2022-11-21T14:37:12.958Z,16.80
2022-11-21T14:39:44.826Z,17.23
2022-11-21T14:42:16.578Z,21.25
2022-11-21T14:44:44.393Z,16.92
2022-11-21T14:47:26.193Z,17.83
2022-11-21T14:49:58.705Z,16.48
2022-11-21T14:52:33.068Z,17.17
2022-11-21T14:57:53.728Z,16.60
2022-11-21T15:00:57.386Z,18.27
2022-11-21T15:03:24.262Z,19.10
2022-11-21T15:06:07.306Z,16.08
2022-11-21T15:11:38.313Z,18.40
2022-11-21T15:14:35.708Z,21.90
2022-11-21T15:17:11.411Z,20.20
2022-11-21T15:22:05.615Z,19.52
2022-11-21T15:24:43.837Z,21.55
2022-11-21T15:27:32.418Z,21.38
2022-11-21T15:30:10.281Z,19.27
2022-11-21T15:33:17.525Z,22.50
2022-11-21T15:35:54.195Z,18.80
2022-11-21T15:38:56.998Z,22.73
2022-11-21T15:41:38.655Z,19.83
2022-11-21T15:44:05.740Z,19.20
2022-11-21T15:46:42.350Z,20.25
2022-11-21T15:49:32.025Z,20.88
2022-11-21T15:52:06.961Z,20.67
2022-11-21T15:54:34.815Z,23.65
2022-11-21T15:57:02.303Z,22.42
2022-11-21T15:59:29.662Z,26.23
2022-11-21T16:01:56.973Z,23.90
2022-11-21T16:04:25.972Z,27.05
2022-11-21T16:06:55.182Z,31.67
2022-11-21T16:09:22.508Z,30.30
2022-11-21T16:11:50.179Z,30.38
2022-11-21T16:14:20.403Z,30.70
2022-11-21T16:16:47.857Z,32.22
2022-11-21T16:19:15.942Z,27.40
2022-11-21T16:21:43.404Z,31.30
2022-11-21T16:24:10.661Z,28.67
2022-11-21T16:26:37.978Z,25.83
2022-11-21T16:29:05.681Z,30.75
2022-11-21T16:31:33.745Z,28.48
2022-11-21T16:34:01.191Z,27.45
2022-11-21T16:36:30.870Z,33.13
2022-11-21T16:39:05.242Z,28.42
2022-11-21T16:41:35.298Z,29.38
2022-11-21T16:44:02.491Z,28.85
2022-11-21T16:46:29.745Z,35.03
2022-11-21T16:49:03.099Z,29.67
2022-11-21T16:51:31.002Z,28.65
2022-11-21T16:54:02.890Z,32.47
2022-11-21T16:56:33.092Z,31.40
2022-11-21T16:59:00.207Z,29.88
2022-11-21T17:01:28.438Z,31.20
2022-11-21T17:03:55.764Z,27.40
2022-11-21T17:06:28.106Z,34.03
2022-11-21T17:08:55.550Z,32.22
2022-11-21T17:11:28.295Z,34.33
2022-11-21T17:14:00.175Z,28.73
2022-11-21T17:16:27.727Z,29.65
2022-11-21T17:18:57.990Z,28.93
2022-11-21T17:21:26.853Z,32.50
2022-11-21T17:23:55.042Z,28.98
2022-11-21T17:26:28.535Z,35.13
2022-11-21T17:29:00.126Z,30.02
2022-11-21T17:31:28.071Z,29.90
2022-11-21T17:34:00.873Z,37.63
2022-11-21T17:36:30.470Z,40.17
2022-11-21T17:38:57.792Z,36.42
2022-11-21T17:41:26.471Z,34.00
2022-11-21T17:43:58.211Z,36.53
2022-11-21T17:46:26.541Z,38.80
2022-11-21T17:48:58.360Z,35.45
2022-11-21T17:51:34.235Z,43.00
2022-11-21T17:54:02.122Z,43.03
2022-11-21T17:56:33.431Z,37.38
2022-11-21T17:59:01.495Z,38.35
2022-11-21T18:01:29.404Z,41.40
2022-11-21T18:04:04.099Z,41.08
2022-11-21T18:06:39.928Z,42.40
2022-11-21T18:09:09.662Z,45.33
2022-11-21T18:11:40.302Z,41.55
2022-11-21T18:14:10.919Z,49.13
2022-11-21T18:16:39.609Z,48.80
2022-11-21T18:19:12.860Z,47.35
2022-11-21T18:21:40.107Z,45.20
2022-11-21T18:24:08.469Z,52.92
2022-11-21T18:26:39.815Z,51.97
2022-11-21T18:31:57.098Z,49.10
2022-11-21T18:34:24.345Z,49.95
2022-11-21T18:36:51.478Z,56.63
2022-11-21T18:39:18.656Z,54.28
2022-11-21T18:41:47.172Z,57.08
2022-11-21T18:44:21.492Z,52.38
2022-11-21T18:46:49.727Z,51.60
2022-11-21T18:49:16.845Z,52.95
2022-11-21T18:51:44.120Z,51.88
2022-11-21T18:54:11.639Z,50.13
2022-11-21T18:56:40.033Z,52.50
2022-11-21T18:59:07.642Z,52.65
2022-11-21T19:01:37.373Z,53.88
2022-11-21T19:04:04.849Z,54.10
2022-11-21T19:06:32.663Z,53.80
2022-11-21T19:09:00.025Z,56.72
2022-11-21T19:11:29.781Z,57.35
2022-11-21T19:13:59.320Z,58.13
2022-11-21T19:16:30.908Z,56.25
2022-11-21T19:21:47.010Z,58.92
2022-11-21T19:24:19.266Z,64.55
2022-11-21T19:26:50.117Z,68.13
2022-11-21T19:29:18.532Z,67.93
2022-11-21T19:31:46.257Z,66.15
2022-11-21T19:34:15.023Z,73.72
2022-11-21T19:36:42.837Z,65.88
2022-11-21T19:39:10.310Z,73.35
2022-11-21T19:41:37.947Z,73.78
2022-11-21T19:44:05.287Z,68.88
2022-11-21T19:46:37.004Z,72.43
2022-11-21T19:49:06.494Z,72.25
2022-11-21T19:51:39.264Z,75.72
2022-11-21T19:54:08.987Z,80.18
2022-11-21T19:56:37.075Z,79.53
2022-11-21T19:59:05.490Z,80.50
2022-11-21T20:01:34.927Z,78.90
2022-11-21T20:04:05.595Z,84.75
2022-11-21T20:06:45.800Z,85.45
2022-11-21T20:09:17.390Z,81.93
2022-11-21T20:11:48.572Z,83.75
2022-11-21T20:14:21.399Z,84.15
2022-11-21T20:16:51.148Z,82.53
2022-11-21T20:19:22.661Z,91.57
2022-11-21T20:21:50.423Z,82.60
2022-11-21T20:24:18.053Z,89.50
2022-11-21T20:26:45.408Z,88.22
2022-11-21T20:29:14.070Z,88.32
2022-11-21T20:31:41.686Z,86.25
2022-11-21T20:34:13.656Z,88.25
2022-11-21T20:36:41.834Z,87.40
2022-11-21T20:39:17.393Z,89.57
2022-11-21T20:41:47.987Z,86.68
2022-11-21T20:45:29.921Z,87.78
2022-11-21T20:47:08.329Z,89.75
2022-11-21T20:49:35.601Z,91.57
2022-11-21T20:53:43.898Z,88.03
2022-11-21T20:54:50.087Z,92.55
2022-11-21T20:57:17.396Z,92.07
2022-11-21T20:59:44.589Z,93.30
2022-11-21T21:02:13.610Z,90.47
2022-11-21T21:04:40.850Z,95.63
2022-11-21T21:07:08.187Z,87.43
2022-11-21T21:09:35.424Z,81.22
2022-11-21T21:12:02.621Z,81.65
2022-11-21T21:14:29.892Z,82.65
2022-11-21T21:16:57.172Z,84.50
2022-11-21T21:19:24.338Z,88.88
2022-11-21T21:21:51.487Z,86.43
2022-11-21T21:24:18.839Z,82.82
2022-11-21T21:26:49.247Z,88.45
2022-11-21T21:29:20.781Z,87.93
2022-11-21T21:31:52.890Z,83.28
2022-11-21T21:34:22.352Z,78.85
2022-11-21T21:36:51.086Z,79.90
2022-11-21T21:39:18.556Z,80.07
2022-11-21T21:41:47.032Z,81.15
2022-11-21T21:44:16.107Z,79.60
2022-11-21T21:46:43.836Z,81.43
2022-11-21T21:49:11.502Z,77.85
2022-11-21T21:51:39.847Z,76.82
2022-11-21T21:54:07.367Z,73.18
2022-11-21T21:56:34.569Z,71.07
2022-11-21T21:59:01.969Z,76.03
2022-11-21T22:01:32.334Z,77.93
2022-11-21T22:04:03.471Z,78.57
2022-11-21T22:06:34.253Z,79.40
2022-11-21T22:09:02.501Z,81.03
2022-11-21T22:11:33.234Z,81.05
2022-11-21T22:14:05.720Z,79.78
2022-11-21T22:16:33.429Z,87.03
2022-11-21T22:19:00.707Z,85.35
2022-11-21T22:21:32.739Z,88.97
2022-11-21T22:26:51.644Z,90.20
2022-11-21T22:29:18.836Z,88.55
2022-11-21T22:31:46.030Z,88.32
2022-11-21T22:34:14.115Z,89.32
2022-11-21T22:36:41.882Z,82.18
2022-11-21T22:39:09.343Z,80.90
2022-11-21T22:41:36.602Z,82.10
2022-11-21T22:44:03.984Z,85.00
2022-11-21T22:46:32.344Z,83.10
2022-11-21T22:48:59.736Z,78.50
2022-11-21T22:51:29.373Z,92.85
2022-11-21T22:53:57.402Z,79.65
2022-11-21T22:56:25.733Z,80.70
2022-11-21T22:58:53.467Z,73.18
2022-11-21T23:01:24.637Z,79.18
2022-11-21T23:03:53.094Z,75.50
2022-11-21T23:06:24.161Z,76.32
2022-11-21T23:08:54.140Z,76.85
2022-11-21T23:11:29.515Z,73.35
2022-11-21T23:13:57.551Z,72.18
2022-11-21T23:16:26.049Z,69.47
2022-11-21T23:18:55.327Z,72.28
2022-11-21T23:21:23.194Z,66.40
2022-11-21T23:23:50.399Z,62.72
2022-11-21T23:26:17.824Z,64.35
2022-11-21T23:28:45.012Z,59.65
2022-11-21T23:31:13.435Z,59.58
2022-11-21T23:33:40.753Z,54.85
2022-11-21T23:36:08.221Z,59.05
2022-11-21T23:38:35.410Z,51.97
2022-11-21T23:41:02.606Z,50.88
2022-11-21T23:43:29.899Z,49.70
2022-11-21T23:45:57.282Z,44.25
2022-11-21T23:48:24.547Z,49.42
2022-11-21T23:50:52.501Z,44.55
2022-11-21T23:53:22.500Z,40.85
2022-11-21T23:55:50.130Z,44.78
2022-11-21T23:58:17.585Z,44.40
